sensor_id;sensor_type;location;lat;lon;timestamp;pressure;altitude;pressure_sealevel;temperature;humidity
56992;BME280;42885;49.754;18.636;2024-03-08T00:02:53;98787.36;;;5.60;88.79
56992;BME280;42885;49.754;18.636;2024-03-08T00:05:43;98792.85;;;5.50;88.87
56992;BME280;42885;49.754;18.636;2024-03-08T00:08:32;98787.16;;;5.39;88.82
56992;BME280;42885;49.754;18.636;2024-03-08T00:11:20;98783.62;;;5.55;88.38
56992;BME280;42885;49.754;18.636;2024-03-08T00:14:09;98787.66;;;5.37;89.01
56992;BME280;42885;49.754;18.636;2024-03-08T00:16:58;98785.30;;;5.14;90.79
56992;BME280;42885;49.754;18.636;2024-03-08T00:19:48;98785.33;;;4.99;91.40
56992;BME280;42885;49.754;18.636;2024-03-08T00:22:40;98777.56;;;5.28;91.30
56992;BME280;42885;49.754;18.636;2024-03-08T00:25:29;98775.44;;;5.26;90.89
56992;BME280;42885;49.754;18.636;2024-03-08T00:28:19;98780.95;;;5.30;90.63
56992;BME280;42885;49.754;18.636;2024-03-08T00:31:07;98771.01;;;5.29;90.47
56992;BME280;42885;49.754;18.636;2024-03-08T00:33:57;98769.96;;;5.35;90.16
56992;BME280;42885;49.754;18.636;2024-03-08T00:36:46;98772.44;;;5.40;89.34
56992;BME280;42885;49.754;18.636;2024-03-08T00:39:37;98763.14;;;5.46;88.43
56992;BME280;42885;49.754;18.636;2024-03-08T00:42:27;98759.39;;;5.41;88.11
56992;BME280;42885;49.754;18.636;2024-03-08T00:45:16;98762.09;;;5.38;88.94
56992;BME280;42885;49.754;18.636;2024-03-08T00:48:05;98750.84;;;5.53;88.42
56992;BME280;42885;49.754;18.636;2024-03-08T00:50:54;98754.83;;;5.63;87.48
56992;BME280;42885;49.754;18.636;2024-03-08T00:53:43;98750.81;;;5.39;88.01
56992;BME280;42885;49.754;18.636;2024-03-08T00:56:32;98756.27;;;5.58;87.54
56992;BME280;42885;49.754;18.636;2024-03-08T00:59:22;98748.03;;;5.45;87.70
56992;BME280;42885;49.754;18.636;2024-03-08T01:02:11;98752.19;;;5.22;87.65
56992;BME280;42885;49.754;18.636;2024-03-08T01:05:00;98741.94;;;5.46;88.82
56992;BME280;42885;49.754;18.636;2024-03-08T01:07:50;98747.77;;;5.53;88.36
56992;BME280;42885;49.754;18.636;2024-03-08T01:10:39;98744.82;;;5.50;87.39
56992;BME280;42885;49.754;18.636;2024-03-08T01:13:29;98741.63;;;5.42;88.09
56992;BME280;42885;49.754;18.636;2024-03-08T01:16:18;98737.63;;;5.59;88.43
56992;BME280;42885;49.754;18.636;2024-03-08T01:19:09;98737.31;;;5.56;87.98
56992;BME280;42885;49.754;18.636;2024-03-08T01:21:58;98736.73;;;5.60;86.81
56992;BME280;42885;49.754;18.636;2024-03-08T01:24:46;98739.64;;;5.64;86.29
56992;BME280;42885;49.754;18.636;2024-03-08T01:27:36;98734.65;;;5.71;87.12
56992;BME280;42885;49.754;18.636;2024-03-08T01:30:25;98739.65;;;5.77;86.87
56992;BME280;42885;49.754;18.636;2024-03-08T01:33:14;98735.48;;;5.45;87.44
56992;BME280;42885;49.754;18.636;2024-03-08T01:36:04;98739.70;;;5.49;88.16
56992;BME280;42885;49.754;18.636;2024-03-08T01:38:53;98736.80;;;5.58;87.56
56992;BME280;42885;49.754;18.636;2024-03-08T01:41:42;98733.53;;;5.51;88.50
56992;BME280;42885;49.754;18.636;2024-03-08T01:44:30;98723.67;;;5.88;87.50
56992;BME280;42885;49.754;18.636;2024-03-08T01:47:20;98724.85;;;5.66;86.39
56992;BME280;42885;49.754;18.636;2024-03-08T01:50:11;98726.74;;;5.74;85.89
56992;BME280;42885;49.754;18.636;2024-03-08T01:53:00;98719.42;;;5.74;85.14
56992;BME280;42885;49.754;18.636;2024-03-08T01:55:50;98721.63;;;5.85;84.91
56992;BME280;42885;49.754;18.636;2024-03-08T01:58:42;98721.47;;;5.77;84.58
56992;BME280;42885;49.754;18.636;2024-03-08T02:01:30;98721.67;;;5.44;85.67
56992;BME280;42885;49.754;18.636;2024-03-08T02:04:20;98722.16;;;5.56;86.41
56992;BME280;42885;49.754;18.636;2024-03-08T02:07:09;98713.83;;;5.59;86.11
56992;BME280;42885;49.754;18.636;2024-03-08T02:10:00;98716.34;;;5.49;86.63
56992;BME280;42885;49.754;18.636;2024-03-08T02:12:49;98708.13;;;5.61;86.31
56992;BME280;42885;49.754;18.636;2024-03-08T02:15:55;98712.13;;;5.58;86.53
56992;BME280;42885;49.754;18.636;2024-03-08T02:18:44;98714.28;;;5.45;86.83
56992;BME280;42885;49.754;18.636;2024-03-08T02:21:34;98701.20;;;5.62;86.66
56992;BME280;42885;49.754;18.636;2024-03-08T02:24:24;98705.57;;;5.60;86.05
56992;BME280;42885;49.754;18.636;2024-03-08T02:27:13;98699.70;;;5.55;85.83
56992;BME280;42885;49.754;18.636;2024-03-08T02:30:05;98697.43;;;5.71;85.83
56992;BME280;42885;49.754;18.636;2024-03-08T02:32:55;98698.13;;;5.22;87.90
56992;BME280;42885;49.754;18.636;2024-03-08T02:35:48;98696.22;;;5.14;88.87
56992;BME280;42885;49.754;18.636;2024-03-08T02:38:39;98693.55;;;5.17;88.70
56992;BME280;42885;49.754;18.636;2024-03-08T02:41:30;98696.63;;;5.01;89.62
56992;BME280;42885;49.754;18.636;2024-03-08T02:44:20;98699.14;;;5.18;89.13
56992;BME280;42885;49.754;18.636;2024-03-08T02:47:09;98698.66;;;5.33;88.38
56992;BME280;42885;49.754;18.636;2024-03-08T02:49:59;98695.41;;;5.40;87.37
56992;BME280;42885;49.754;18.636;2024-03-08T02:52:50;98698.88;;;5.26;86.67
56992;BME280;42885;49.754;18.636;2024-03-08T02:55:40;98697.15;;;5.26;87.68
56992;BME280;42885;49.754;18.636;2024-03-08T02:58:29;98691.20;;;5.22;87.78
56992;BME280;42885;49.754;18.636;2024-03-08T03:01:19;98694.52;;;5.28;87.21
56992;BME280;42885;49.754;18.636;2024-03-08T03:04:08;98694.74;;;5.20;87.24
56992;BME280;42885;49.754;18.636;2024-03-08T03:06:58;98692.98;;;4.78;89.24
56992;BME280;42885;49.754;18.636;2024-03-08T03:09:47;98698.02;;;4.83;89.91
56992;BME280;42885;49.754;18.636;2024-03-08T03:12:38;98694.27;;;4.78;90.64
56992;BME280;42885;49.754;18.636;2024-03-08T03:15:27;98689.56;;;4.91;90.06
56992;BME280;42885;49.754;18.636;2024-03-08T03:18:15;98698.42;;;4.84;89.62
56992;BME280;42885;49.754;18.636;2024-03-08T03:21:06;98693.38;;;4.79;88.87
56992;BME280;42885;49.754;18.636;2024-03-08T03:23:55;98700.67;;;4.66;88.48
56992;BME280;42885;49.754;18.636;2024-03-08T03:26:44;98693.75;;;4.67;90.27
56992;BME280;42885;49.754;18.636;2024-03-08T03:29:34;98689.74;;;4.57;90.88
56992;BME280;42885;49.754;18.636;2024-03-08T03:32:24;98698.04;;;4.68;90.82
56992;BME280;42885;49.754;18.636;2024-03-08T03:35:14;98696.91;;;4.77;90.49
56992;BME280;42885;49.754;18.636;2024-03-08T03:38:03;98695.36;;;4.56;91.02
56992;BME280;42885;49.754;18.636;2024-03-08T03:40:55;98691.11;;;4.53;91.12
56992;BME280;42885;49.754;18.636;2024-03-08T03:43:45;98698.25;;;4.60;91.11
56992;BME280;42885;49.754;18.636;2024-03-08T03:46:36;98690.90;;;4.15;92.96
56992;BME280;42885;49.754;18.636;2024-03-08T03:49:25;98698.03;;;4.06;96.49
56992;BME280;42885;49.754;18.636;2024-03-08T03:52:14;98699.81;;;4.04;96.81
56992;BME280;42885;49.754;18.636;2024-03-08T03:55:06;98699.42;;;4.03;96.88
56992;BME280;42885;49.754;18.636;2024-03-08T03:57:56;98695.41;;;3.91;97.68
56992;BME280;42885;49.754;18.636;2024-03-08T04:00:46;98703.77;;;3.84;98.89
56992;BME280;42885;49.754;18.636;2024-03-08T04:03:36;98700.86;;;3.80;99.09
56992;BME280;42885;49.754;18.636;2024-03-08T04:06:25;98695.93;;;3.71;99.20
56992;BME280;42885;49.754;18.636;2024-03-08T04:09:14;98696.95;;;3.82;98.90
56992;BME280;42885;49.754;18.636;2024-03-08T04:12:03;98698.67;;;3.81;98.52
56992;BME280;42885;49.754;18.636;2024-03-08T04:14:52;98701.48;;;3.74;98.99
56992;BME280;42885;49.754;18.636;2024-03-08T04:17:44;98697.41;;;3.80;99.96
56992;BME280;42885;49.754;18.636;2024-03-08T04:20:34;98701.77;;;3.61;100.00
56992;BME280;42885;49.754;18.636;2024-03-08T04:23:23;98697.64;;;3.54;100.00
56992;BME280;42885;49.754;18.636;2024-03-08T04:26:12;98692.45;;;3.54;100.00
56992;BME280;42885;49.754;18.636;2024-03-08T04:29:01;98691.08;;;3.40;100.00
56992;BME280;42885;49.754;18.636;2024-03-08T04:31:51;98692.38;;;3.40;100.00
56992;BME280;42885;49.754;18.636;2024-03-08T04:34:44;98695.56;;;3.50;100.00
56992;BME280;42885;49.754;18.636;2024-03-08T04:37:33;98692.69;;;3.44;100.00
56992;BME280;42885;49.754;18.636;2024-03-08T04:40:23;98691.25;;;3.33;100.00
56992;BME280;42885;49.754;18.636;2024-03-08T04:43:12;98692.41;;;3.39;100.00
56992;BME280;42885;49.754;18.636;2024-03-08T04:46:03;98689.95;;;3.33;100.00
56992;BME280;42885;49.754;18.636;2024-03-08T04:48:53;98694.73;;;3.32;100.00
56992;BME280;42885;49.754;18.636;2024-03-08T04:51:42;98689.69;;;3.25;100.00
56992;BME280;42885;49.754;18.636;2024-03-08T04:54:33;98687.08;;;3.27;100.00
56992;BME280;42885;49.754;18.636;2024-03-08T04:57:22;98690.04;;;3.29;100.00
56992;BME280;42885;49.754;18.636;2024-03-08T05:00:12;98690.04;;;3.29;100.00
56992;BME280;42885;49.754;18.636;2024-03-08T05:03:03;98686.01;;;3.18;100.00
56992;BME280;42885;49.754;18.636;2024-03-08T05:05:52;98688.11;;;3.20;100.00
56992;BME280;42885;49.754;18.636;2024-03-08T05:08:41;98686.90;;;3.16;100.00
56992;BME280;42885;49.754;18.636;2024-03-08T05:11:31;98686.58;;;3.11;100.00
56992;BME280;42885;49.754;18.636;2024-03-08T05:14:20;98695.49;;;3.17;100.00
56992;BME280;42885;49.754;18.636;2024-03-08T05:17:09;98695.81;;;3.03;100.00
56992;BME280;42885;49.754;18.636;2024-03-08T05:19:59;98694.23;;;2.97;100.00
56992;BME280;42885;49.754;18.636;2024-03-08T05:22:48;98697.03;;;3.06;100.00
56992;BME280;42885;49.754;18.636;2024-03-08T05:25:39;98699.98;;;3.09;100.00
56992;BME280;42885;49.754;18.636;2024-03-08T05:28:29;98698.80;;;3.04;100.00
56992;BME280;42885;49.754;18.636;2024-03-08T05:31:22;98695.84;;;3.01;100.00
56992;BME280;42885;49.754;18.636;2024-03-08T05:34:10;98697.00;;;3.08;100.00
56992;BME280;42885;49.754;18.636;2024-03-08T05:37:01;98692.36;;;3.02;100.00
56992;BME280;42885;49.754;18.636;2024-03-08T05:39:51;98697.08;;;3.05;100.00
56992;BME280;42885;49.754;18.636;2024-03-08T05:42:40;98702.38;;;2.98;100.00
56992;BME280;42885;49.754;18.636;2024-03-08T05:45:29;98700.80;;;3.11;100.00
56992;BME280;42885;49.754;18.636;2024-03-08T05:48:18;98702.78;;;3.37;100.00
56992;BME280;42885;49.754;18.636;2024-03-08T05:51:07;98700.69;;;3.53;100.00
56992;BME280;42885;49.754;18.636;2024-03-08T05:53:57;98702.20;;;3.61;100.00
56992;BME280;42885;49.754;18.636;2024-03-08T05:56:46;98705.28;;;3.58;100.00
56992;BME280;42885;49.754;18.636;2024-03-08T05:59:35;98703.30;;;3.34;100.00
56992;BME280;42885;49.754;18.636;2024-03-08T06:02:24;98710.45;;;3.58;100.00
56992;BME280;42885;49.754;18.636;2024-03-08T06:05:14;98716.70;;;3.68;100.00
56992;BME280;42885;49.754;18.636;2024-03-08T06:08:03;98713.53;;;3.56;100.00
56992;BME280;42885;49.754;18.636;2024-03-08T06:10:52;98712.66;;;3.74;100.00
56992;BME280;42885;49.754;18.636;2024-03-08T06:13:41;98712.02;;;3.82;100.00
56992;BME280;42885;49.754;18.636;2024-03-08T06:16:30;98717.61;;;3.83;100.00
56992;BME280;42885;49.754;18.636;2024-03-08T06:19:22;98717.88;;;3.89;100.00
56992;BME280;42885;49.754;18.636;2024-03-08T06:22:11;98724.61;;;3.96;100.00
56992;BME280;42885;49.754;18.636;2024-03-08T06:25:02;98718.50;;;3.99;100.00
56992;BME280;42885;49.754;18.636;2024-03-08T06:27:51;98720.69;;;3.98;100.00
56992;BME280;42885;49.754;18.636;2024-03-08T06:30:40;98723.27;;;3.81;100.00
56992;BME280;42885;49.754;18.636;2024-03-08T06:33:31;98726.61;;;4.03;100.00
56992;BME280;42885;49.754;18.636;2024-03-08T06:36:21;98720.55;;;4.36;100.00
56992;BME280;42885;49.754;18.636;2024-03-08T06:39:10;98720.55;;;4.36;100.00
56992;BME280;42885;49.754;18.636;2024-03-08T06:41:59;98724.57;;;4.46;100.00
56992;BME280;42885;49.754;18.636;2024-03-08T06:44:48;98723.34;;;4.60;99.45
56992;BME280;42885;49.754;18.636;2024-03-08T06:47:37;98722.94;;;4.74;99.17
56992;BME280;42885;49.754;18.636;2024-03-08T06:50:26;98721.90;;;4.79;98.44
56992;BME280;42885;49.754;18.636;2024-03-08T06:53:15;98714.31;;;5.02;96.29
56992;BME280;42885;49.754;18.636;2024-03-08T06:56:06;98712.44;;;5.07;95.71
56992;BME280;42885;49.754;18.636;2024-03-08T06:58:56;98710.27;;;5.21;94.10
56992;BME280;42885;49.754;18.636;2024-03-08T07:01:45;98709.91;;;5.19;93.33
56992;BME280;42885;49.754;18.636;2024-03-08T07:04:36;98706.98;;;5.30;91.75
56992;BME280;42885;49.754;18.636;2024-03-08T07:07:26;98708.32;;;5.55;89.76
56992;BME280;42885;49.754;18.636;2024-03-08T07:10:17;98703.68;;;5.78;89.73
56992;BME280;42885;49.754;18.636;2024-03-08T07:13:06;98710.73;;;5.75;86.86
56992;BME280;42885;49.754;18.636;2024-03-08T07:15:55;98708.56;;;5.88;86.10
56992;BME280;42885;49.754;18.636;2024-03-08T07:18:45;98714.73;;;5.97;84.71
56992;BME280;42885;49.754;18.636;2024-03-08T07:21:34;98704.69;;;6.00;83.22
56992;BME280;42885;49.754;18.636;2024-03-08T07:24:24;98710.80;;;6.24;81.08
56992;BME280;42885;49.754;18.636;2024-03-08T07:27:15;98705.37;;;6.18;79.63
56992;BME280;42885;49.754;18.636;2024-03-08T07:30:06;98706.43;;;5.99;81.23
56992;BME280;42885;49.754;18.636;2024-03-08T07:32:57;98704.52;;;6.30;79.39
56992;BME280;42885;49.754;18.636;2024-03-08T07:35:46;98698.72;;;6.47;77.79
56992;BME280;42885;49.754;18.636;2024-03-08T07:38:37;98703.06;;;6.46;77.64
56992;BME280;42885;49.754;18.636;2024-03-08T07:41:26;98704.09;;;6.66;76.71
56992;BME280;42885;49.754;18.636;2024-03-08T07:44:17;98702.82;;;6.88;75.47
56992;BME280;42885;49.754;18.636;2024-03-08T07:47:06;98700.64;;;7.00;75.89
56992;BME280;42885;49.754;18.636;2024-03-08T07:49:57;98700.07;;;7.03;75.33
56992;BME280;42885;49.754;18.636;2024-03-08T07:52:48;98694.92;;;7.14;73.74
56992;BME280;42885;49.754;18.636;2024-03-08T07:55:37;98690.80;;;7.30;71.13
56992;BME280;42885;49.754;18.636;2024-03-08T07:58:27;98692.98;;;7.52;70.24
56992;BME280;42885;49.754;18.636;2024-03-08T08:01:20;98686.70;;;7.35;69.91
56992;BME280;42885;49.754;18.636;2024-03-08T08:04:10;98688.11;;;7.32;68.90
56992;BME280;42885;49.754;18.636;2024-03-08T08:07:00;98686.72;;;7.56;67.29
56992;BME280;42885;49.754;18.636;2024-03-08T08:09:49;98685.70;;;7.70;66.88
56992;BME280;42885;49.754;18.636;2024-03-08T08:12:38;98680.97;;;8.20;65.18
56992;BME280;42885;49.754;18.636;2024-03-08T08:15:27;98683.63;;;8.59;64.31
56992;BME280;42885;49.754;18.636;2024-03-08T08:18:17;98683.91;;;8.23;62.18
56992;BME280;42885;49.754;18.636;2024-03-08T08:21:08;98684.22;;;8.65;61.12
56992;BME280;42885;49.754;18.636;2024-03-08T08:23:59;98683.58;;;8.79;60.61
56992;BME280;42885;49.754;18.636;2024-03-08T08:26:47;98675.81;;;8.78;60.72
56992;BME280;42885;49.754;18.636;2024-03-08T08:29:37;98678.03;;;8.58;61.48
56992;BME280;42885;49.754;18.636;2024-03-08T08:32:26;98676.06;;;8.33;61.67
56992;BME280;42885;49.754;18.636;2024-03-08T08:35:16;98684.41;;;8.50;60.77
56992;BME280;42885;49.754;18.636;2024-03-08T08:38:08;98679.70;;;8.39;60.52
56992;BME280;42885;49.754;18.636;2024-03-08T08:40:56;98687.64;;;8.47;61.77
56992;BME280;42885;49.754;18.636;2024-03-08T08:43:46;98685.00;;;8.28;62.24
56992;BME280;42885;49.754;18.636;2024-03-08T08:46:35;98682.70;;;8.40;62.58
56992;BME280;42885;49.754;18.636;2024-03-08T08:49:25;98680.20;;;8.77;62.17
56992;BME280;42885;49.754;18.636;2024-03-08T08:52:14;98687.53;;;8.69;62.06
56992;BME280;42885;49.754;18.636;2024-03-08T08:55:05;98674.03;;;9.43;61.60
56992;BME280;42885;49.754;18.636;2024-03-08T08:57:55;98673.88;;;9.73;60.36
56992;BME280;42885;49.754;18.636;2024-03-08T09:00:45;98670.13;;;9.52;60.25
56992;BME280;42885;49.754;18.636;2024-03-08T09:03:34;98672.41;;;9.85;58.49
56992;BME280;42885;49.754;18.636;2024-03-08T09:06:25;98677.39;;;9.28;59.24
56992;BME280;42885;49.754;18.636;2024-03-08T09:09:14;98671.34;;;8.99;60.17
56992;BME280;42885;49.754;18.636;2024-03-08T09:12:04;98666.81;;;8.94;59.74
56992;BME280;42885;49.754;18.636;2024-03-08T09:14:54;98677.55;;;8.68;60.84
56992;BME280;42885;49.754;18.636;2024-03-08T09:17:42;98676.56;;;8.99;60.30
56992;BME280;42885;49.754;18.636;2024-03-08T09:20:32;98678.31;;;8.41;61.68
56992;BME280;42885;49.754;18.636;2024-03-08T09:23:21;98678.79;;;8.70;61.27
56992;BME280;42885;49.754;18.636;2024-03-08T09:26:12;98675.67;;;9.09;60.30
56992;BME280;42885;49.754;18.636;2024-03-08T09:29:03;98666.72;;;8.87;59.16
56992;BME280;42885;49.754;18.636;2024-03-08T09:31:54;98665.16;;;9.11;58.92
56992;BME280;42885;49.754;18.636;2024-03-08T09:34:43;98667.22;;;8.76;59.31
56992;BME280;42885;49.754;18.636;2024-03-08T09:37:33;98669.71;;;9.25;58.96
56992;BME280;42885;49.754;18.636;2024-03-08T09:40:26;98666.20;;;9.34;58.48
56992;BME280;42885;49.754;18.636;2024-03-08T09:43:16;98668.25;;;9.19;58.23
56992;BME280;42885;49.754;18.636;2024-03-08T09:46:07;98669.73;;;9.42;58.19
56992;BME280;42885;49.754;18.636;2024-03-08T09:48:57;98666.59;;;9.07;57.70
56992;BME280;42885;49.754;18.636;2024-03-08T09:51:46;98663.68;;;9.59;56.94
56992;BME280;42885;49.754;18.636;2024-03-08T09:54:36;98657.89;;;10.22;56.64
56992;BME280;42885;49.754;18.636;2024-03-08T09:57:25;98661.95;;;9.85;56.35
56992;BME280;42885;49.754;18.636;2024-03-08T10:00:15;98660.13;;;9.78;56.61
56992;BME280;42885;49.754;18.636;2024-03-08T10:03:08;98657.91;;;9.44;56.83
56992;BME280;42885;49.754;18.636;2024-03-08T10:05:58;98665.50;;;9.40;56.81
56992;BME280;42885;49.754;18.636;2024-03-08T10:08:50;98653.66;;;10.28;55.75
56992;BME280;42885;49.754;18.636;2024-03-08T10:11:43;98666.36;;;10.77;55.18
56992;BME280;42885;49.754;18.636;2024-03-08T10:14:32;98656.14;;;10.72;54.71
56992;BME280;42885;49.754;18.636;2024-03-08T10:17:22;98655.46;;;11.08;54.64
56992;BME280;42885;49.754;18.636;2024-03-08T10:20:17;98649.52;;;11.43;54.00
56992;BME280;42885;49.754;18.636;2024-03-08T10:23:07;98654.02;;;11.41;53.11
56992;BME280;42885;49.754;18.636;2024-03-08T10:25:57;98644.64;;;11.14;53.23
56992;BME280;42885;49.754;18.636;2024-03-08T10:28:48;98662.94;;;10.67;54.45
56992;BME280;42885;49.754;18.636;2024-03-08T10:31:37;98655.50;;;11.15;53.48
56992;BME280;42885;49.754;18.636;2024-03-08T10:34:27;98658.52;;;11.00;53.60
56992;BME280;42885;49.754;18.636;2024-03-08T10:37:21;98653.55;;;10.63;53.96
56992;BME280;42885;49.754;18.636;2024-03-08T10:40:20;98652.45;;;10.83;54.72
56992;BME280;42885;49.754;18.636;2024-03-08T10:43:08;98650.69;;;10.84;53.65
56992;BME280;42885;49.754;18.636;2024-03-08T10:49:11;98648.45;;;11.69;51.78
56992;BME280;42885;49.754;18.636;2024-03-08T10:52:01;98644.45;;;12.65;51.94
56992;BME280;42885;49.754;18.636;2024-03-08T10:54:52;98646.80;;;11.83;51.70
56992;BME280;42885;49.754;18.636;2024-03-08T10:57:43;98639.43;;;12.41;50.77
56992;BME280;42885;49.754;18.636;2024-03-08T11:00:32;98636.06;;;12.46;50.80
56992;BME280;42885;49.754;18.636;2024-03-08T11:06:42;98635.00;;;11.83;50.40
56992;BME280;42885;49.754;18.636;2024-03-08T11:09:37;98616.43;;;14.13;47.88
56992;BME280;42885;49.754;18.636;2024-03-08T11:12:27;98611.10;;;15.20;45.18
56992;BME280;42885;49.754;18.636;2024-03-08T11:15:25;98610.86;;;15.23;44.64
56992;BME280;42885;49.754;18.636;2024-03-08T11:18:14;98610.55;;;15.03;44.93
56992;BME280;42885;49.754;18.636;2024-03-08T11:21:08;98607.48;;;15.51;44.87
56992;BME280;42885;49.754;18.636;2024-03-08T11:24:07;98613.72;;;15.44;44.85
56992;BME280;42885;49.754;18.636;2024-03-08T11:26:59;98604.66;;;15.65;44.07
56992;BME280;42885;49.754;18.636;2024-03-08T11:30:06;98604.00;;;16.09;42.62
56992;BME280;42885;49.754;18.636;2024-03-08T11:33:05;98604.36;;;16.27;41.59
56992;BME280;42885;49.754;18.636;2024-03-08T11:36:12;98605.48;;;15.72;42.38
56992;BME280;42885;49.754;18.636;2024-03-08T11:39:03;98598.23;;;16.21;41.24
56992;BME280;42885;49.754;18.636;2024-03-08T11:41:54;98590.73;;;16.55;40.95
56992;BME280;42885;49.754;18.636;2024-03-08T11:44:45;98594.28;;;16.82;41.05
56992;BME280;42885;49.754;18.636;2024-03-08T11:47:35;98588.86;;;16.22;40.03
56992;BME280;42885;49.754;18.636;2024-03-08T11:50:26;98585.13;;;16.92;40.68
56992;BME280;42885;49.754;18.636;2024-03-08T11:53:16;98578.39;;;16.88;40.57
56992;BME280;42885;49.754;18.636;2024-03-08T11:56:12;98573.28;;;17.93;40.66
56992;BME280;42885;49.754;18.636;2024-03-08T11:59:01;98568.48;;;16.74;40.37
56992;BME280;42885;49.754;18.636;2024-03-08T12:02:04;98563.38;;;17.95;40.58
56992;BME280;42885;49.754;18.636;2024-03-08T12:04:56;98567.09;;;16.47;39.51
56992;BME280;42885;49.754;18.636;2024-03-08T12:07:57;98569.16;;;14.86;42.39
56992;BME280;42885;49.754;18.636;2024-03-08T12:10:47;98564.22;;;16.50;40.48
56992;BME280;42885;49.754;18.636;2024-03-08T12:13:36;98557.46;;;17.50;39.79
56992;BME280;42885;49.754;18.636;2024-03-08T12:16:24;98553.92;;;17.13;39.11
56992;BME280;42885;49.754;18.636;2024-03-08T12:19:14;98552.76;;;17.00;39.28
56992;BME280;42885;49.754;18.636;2024-03-08T12:22:09;98549.09;;;17.60;39.92
56992;BME280;42885;49.754;18.636;2024-03-08T12:25:05;98547.07;;;18.05;38.61
56992;BME280;42885;49.754;18.636;2024-03-08T12:27:56;98547.59;;;18.40;38.73
56992;BME280;42885;49.754;18.636;2024-03-08T12:30:48;98549.67;;;17.95;38.04
56992;BME280;42885;49.754;18.636;2024-03-08T12:33:54;98542.02;;;18.78;37.82
56992;BME280;42885;49.754;18.636;2024-03-08T12:36:48;98542.03;;;19.18;36.08
56992;BME280;42885;49.754;18.636;2024-03-08T12:39:37;98544.34;;;18.16;37.35
56992;BME280;42885;49.754;18.636;2024-03-08T12:42:28;98543.28;;;17.98;37.61
56992;BME280;42885;49.754;18.636;2024-03-08T12:45:18;98538.85;;;18.59;37.75
56992;BME280;42885;49.754;18.636;2024-03-08T12:48:13;98535.06;;;19.07;36.92
56992;BME280;42885;49.754;18.636;2024-03-08T12:51:04;98537.38;;;19.30;37.11
56992;BME280;42885;49.754;18.636;2024-03-08T12:53:54;98538.44;;;20.04;36.59
56992;BME280;42885;49.754;18.636;2024-03-08T12:56:44;98533.60;;;19.42;35.49
56992;BME280;42885;49.754;18.636;2024-03-08T12:59:32;98535.17;;;18.76;36.37
56992;BME280;42885;49.754;18.636;2024-03-08T13:02:22;98526.33;;;19.68;35.64
56992;BME280;42885;49.754;18.636;2024-03-08T13:05:12;98528.00;;;19.02;36.33
56992;BME280;42885;49.754;18.636;2024-03-08T13:08:01;98525.86;;;19.01;36.06
56992;BME280;42885;49.754;18.636;2024-03-08T13:10:50;98532.03;;;19.25;36.74
56992;BME280;42885;49.754;18.636;2024-03-08T13:13:42;98520.98;;;19.30;36.34
56992;BME280;42885;49.754;18.636;2024-03-08T13:16:32;98524.98;;;19.54;36.67
56992;BME280;42885;49.754;18.636;2024-03-08T13:19:23;98518.78;;;19.97;35.27
56992;BME280;42885;49.754;18.636;2024-03-08T13:22:12;98521.06;;;19.34;35.41
56992;BME280;42885;49.754;18.636;2024-03-08T13:25:03;98522.81;;;18.80;36.57
56992;BME280;42885;49.754;18.636;2024-03-08T13:27:53;98507.69;;;19.06;36.38
56992;BME280;42885;49.754;18.636;2024-03-08T13:30:43;98507.69;;;19.06;36.38
56992;BME280;42885;49.754;18.636;2024-03-08T13:33:33;98507.75;;;18.51;36.94
56992;BME280;42885;49.754;18.636;2024-03-08T13:36:27;98508.36;;;18.39;36.66
56992;BME280;42885;49.754;18.636;2024-03-08T13:39:20;98505.55;;;18.41;37.04
56992;BME280;42885;49.754;18.636;2024-03-08T13:42:11;98506.48;;;19.24;35.36
56992;BME280;42885;49.754;18.636;2024-03-08T13:45:07;98500.77;;;18.90;36.59
56992;BME280;42885;49.754;18.636;2024-03-08T13:47:58;98498.88;;;18.96;35.92
56992;BME280;42885;49.754;18.636;2024-03-08T13:50:48;98496.98;;;19.22;36.06
56992;BME280;42885;49.754;18.636;2024-03-08T13:53:38;98498.32;;;18.92;36.02
56992;BME280;42885;49.754;18.636;2024-03-08T13:56:28;98496.09;;;19.17;36.00
56992;BME280;42885;49.754;18.636;2024-03-08T13:59:20;98494.82;;;18.92;36.02
56992;BME280;42885;49.754;18.636;2024-03-08T14:02:12;98493.27;;;19.29;35.78
56992;BME280;42885;49.754;18.636;2024-03-08T14:05:01;98490.45;;;18.22;36.33
56992;BME280;42885;49.754;18.636;2024-03-08T14:07:51;98487.46;;;18.21;36.43
56992;BME280;42885;49.754;18.636;2024-03-08T14:10:42;98486.48;;;18.57;36.10
56992;BME280;42885;49.754;18.636;2024-03-08T14:13:31;98487.66;;;18.49;35.87
56992;BME280;42885;49.754;18.636;2024-03-08T14:16:21;98493.52;;;17.76;37.03
56992;BME280;42885;49.754;18.636;2024-03-08T14:19:10;98483.61;;;18.09;36.94
56992;BME280;42885;49.754;18.636;2024-03-08T14:22:00;98488.79;;;17.80;37.00
56992;BME280;42885;49.754;18.636;2024-03-08T14:24:50;98489.41;;;17.46;37.79
56992;BME280;42885;49.754;18.636;2024-03-08T14:27:39;98486.53;;;17.91;37.18
56992;BME280;42885;49.754;18.636;2024-03-08T14:30:29;98485.48;;;16.77;38.13
56992;BME280;42885;49.754;18.636;2024-03-08T14:33:22;98492.91;;;16.39;39.10
56992;BME280;42885;49.754;18.636;2024-03-08T14:36:13;98483.63;;;17.47;38.57
56992;BME280;42885;49.754;18.636;2024-03-08T14:39:03;98479.92;;;15.80;41.01
56992;BME280;42885;49.754;18.636;2024-03-08T14:41:52;98490.33;;;13.79;44.36
56992;BME280;42885;49.754;18.636;2024-03-08T14:44:42;98483.11;;;13.56;45.62
56992;BME280;42885;49.754;18.636;2024-03-08T14:47:33;98484.27;;;13.06;46.17
56992;BME280;42885;49.754;18.636;2024-03-08T14:50:23;98488.36;;;12.36;47.14
56992;BME280;42885;49.754;18.636;2024-03-08T14:53:12;98490.42;;;12.31;48.23
56992;BME280;42885;49.754;18.636;2024-03-08T14:56:04;98491.91;;;11.50;49.53
56992;BME280;42885;49.754;18.636;2024-03-08T14:58:54;98492.75;;;11.57;50.21
56992;BME280;42885;49.754;18.636;2024-03-08T15:01:44;98478.70;;;11.80;50.40
56992;BME280;42885;49.754;18.636;2024-03-08T15:04:34;98474.67;;;11.89;50.22